Wan Hai 282 — 9VJM6 — position and weather

sailwx.info

Track history (hours):
 
Tides and Currents Weather Stations Pressure Air Temp Water Temp Dewpoint Dewpoint Depression Visibility Wind Speed Wind Dir Waves Ship Positions

Wan Hai 282

Last reported at 2017-Nov-19 08:42 UTC. Time now 2017-Nov-20 17:17 UTC.
Position N 22°13' E 114°10'.

Length 182 m; draft 7.3 m.

Type: Ship. MMSI: 565647000.

Date/timePositionNaut miles runAvg speedWind from/ knotsBaromVisibWave heightAir tempDewpointWater temp
2017-Nov-19 08:42N 22°13' E 114°10'2 9.9
2017-Nov-19 08:30N 22°14' E 114°08'1011.3
2017-Nov-19 07:38N 22°21' E 114°01'214.8
2017-Nov-19 07:30N 22°21' E 113°59'612.4
2017-Nov-19 07:00N 22°24' E 113°53'3 6.7
2017-Nov-19 06:30N 22°27' E 113°54'1 1.7
2017-Nov-19 05:58N 22°28' E 113°54'0 0.0
2017-Nov-19 05:28N 22°28' E 113°54'0 0.0
2017-Nov-19 04:58N 22°28' E 113°54'0 0.0
2017-Nov-19 04:28N 22°28' E 113°54'0 0.0
2017-Nov-19 03:58N 22°28' E 113°54'0 0.0
2017-Nov-19 03:28N 22°28' E 113°54'0 0.0
2017-Nov-19 02:58N 22°28' E 113°54'0 0.0
2017-Nov-19 02:28N 22°28' E 113°54'0 0.0
2017-Nov-19 01:58N 22°28' E 113°54'0 0.0
2017-Nov-19 01:28N 22°28' E 113°54'0 0.0
2017-Nov-19 00:58N 22°28' E 113°54'0 0.0
2017-Nov-19 00:28N 22°28' E 113°54'1 2.2
2017-Nov-19 00:01N 22°27' E 113°54'3 6.5
2017-Nov-18 23:30N 22°24' E 113°54'3 5.8
2017-Nov-18 23:00N 22°21' E 113°56'611.5
2017-Nov-18 22:30N 22°21' E 114°02'5 9.0
2017-Nov-18 21:57N 22°20' E 114°07'1 0.5
2017-Nov-18 19:54N 22°21' E 114°07'2 0.1
2017-Nov-18 04:04N 22°19' E 114°06'1 9.0
2017-Nov-18 03:57N 22°18' E 114°06'22 8.3
2017-Nov-18 01:21N 22°08' E 114°27'512.5
2017-Nov-18 00:57N 22°09' E 114°33'715.2
2017-Nov-18 00:31N 22°10' E 114°40'815.3
2017-Nov-18 00:00N 22°11' E 114°48'815.0
2017-Nov-17 23:29N 22°12' E 114°56'715.1
2017-Nov-17 23:00N 22°12' E 115°04'814.8
2017-Nov-17 22:29N 22°14' E 115°12'5 9.7
2017-Nov-17 21:56N 22°16' E 115°18'0 0.3
2017-Nov-17 21:30N 22°16' E 115°18'0 0.3
2017-Nov-17 21:01N 22°16' E 115°18'0 0.3
2017-Nov-17 20:30N 22°16' E 115°18'0 0.4
2017-Nov-17 19:45N 22°16' E 115°18'0 0.1
2017-Nov-17 17:38N 22°16' E 115°18'0 0.4
2017-Nov-17 17:30N 22°16' E 115°18'0 0.3
2017-Nov-17 16:46N 22°16' E 115°18'0 0.2
2017-Nov-17 16:27N 22°16' E 115°18'0 0.1
2017-Nov-17 16:00N 22°16' E 115°18'1 0.6
2017-Nov-17 15:04N 22°15' E 115°17'0 1.3
2017-Nov-17 14:50N 22°15' E 115°17'1 3.3
2017-Nov-17 14:30N 22°15' E 115°18'26314.5
2017-Nov-16 20:21N 22°32' E 120°03'615.9
2017-Nov-16 20:00N 22°32' E 120°09'714.2
2017-Nov-16 19:30N 22°33' E 120°16'2 4.7
2017-Nov-16 19:00N 22°34' E 120°19'1 0.2
2017-Nov-16 15:46N 22°35' E 120°18'0 0.0
2017-Nov-16 15:22N 22°35' E 120°18'0 0.0
2017-Nov-16 09:05N 22°35' E 120°18'0 0.7
2017-Nov-16 09:00N 22°35' E 120°18'3 5.4
2017-Nov-16 08:30N 22°37' E 120°17'3 6.2
2017-Nov-16 08:00N 22°37' E 120°13'0 0.5
2017-Nov-16 07:30N 22°37' E 120°13'3 6.7
2017-Nov-16 07:00N 22°39' E 120°10'612.4
2017-Nov-16 06:31N 22°45' E 120°07'  
2017-Nov-09 19:52N 34°34' E 134°50'515.1
2017-Nov-09 19:30N 34°36' E 134°56'713.7
2017-Nov-09 19:00N 34°36' E 135°04'713.5
2017-Nov-09 18:30N 34°36' E 135°12'4 8.1
2017-Nov-09 18:00N 34°38' E 135°16'3 2.8
2017-Nov-09 17:05N 34°41' E 135°15'0 0.0
2017-Nov-09 16:59N 34°41' E 135°15'0 0.0
2017-Nov-09 16:17N 34°41' E 135°15'0 0.0
2017-Nov-09 15:53N 34°41' E 135°15'0 0.0
2017-Nov-09 15:29N 34°41' E 135°15'0 0.0
2017-Nov-09 14:55N 34°41' E 135°15'0 0.0
2017-Nov-09 14:25N 34°41' E 135°15'0 0.0
2017-Nov-09 13:55N 34°41' E 135°15'0 0.0
2017-Nov-09 13:19N 34°41' E 135°15'0 0.0
2017-Nov-09 12:55N 34°41' E 135°15'0 0.0
2017-Nov-09 12:13N 34°41' E 135°15'0 0.0
2017-Nov-09 11:49N 34°41' E 135°15'0 0.0
2017-Nov-09 11:25N 34°41' E 135°15'0 0.0
2017-Nov-09 10:55N 34°41' E 135°15'0 0.0
2017-Nov-09 10:25N 34°41' E 135°15'0 0.0
2017-Nov-09 09:55N 34°41' E 135°15'0 0.0
2017-Nov-09 09:29N 34°41' E 135°15'2 4.7
2017-Nov-09 09:00N 34°39' E 135°16'  
Track history (hours):
 
Tides and Currents Weather Stations Pressure Air Temp Water Temp Dewpoint Dewpoint Depression Visibility Wind Speed Wind Dir Waves Ship Positions

Wan Hai 282

Last reported at 2017-Nov-19 08:42 UTC. Time now 2017-Nov-20 17:17 UTC.
Position N 22°13' E 114°10'.

Length 182 m; draft 7.3 m.

Type: Ship. MMSI: 565647000.

Date/timePositionNaut miles runAvg speedWind from/ knotsBaromVisibWave heightAir tempDewpointWater temp
2017-Nov-19 08:42N 22°13' E 114°10'2 9.9
2017-Nov-19 08:30N 22°14' E 114°08'1011.3
2017-Nov-19 07:38N 22°21' E 114°01'214.8
2017-Nov-19 07:30N 22°21' E 113°59'612.4
2017-Nov-19 07:00N 22°24' E 113°53'3 6.7
2017-Nov-19 06:30N 22°27' E 113°54'1 1.7
2017-Nov-19 05:58N 22°28' E 113°54'0 0.0
2017-Nov-19 05:28N 22°28' E 113°54'0 0.0
2017-Nov-19 04:58N 22°28' E 113°54'0 0.0
2017-Nov-19 04:28N 22°28' E 113°54'0 0.0
2017-Nov-19 03:58N 22°28' E 113°54'0 0.0
2017-Nov-19 03:28N 22°28' E 113°54'0 0.0
2017-Nov-19 02:58N 22°28' E 113°54'0 0.0
2017-Nov-19 02:28N 22°28' E 113°54'0 0.0
2017-Nov-19 01:58N 22°28' E 113°54'0 0.0
2017-Nov-19 01:28N 22°28' E 113°54'0 0.0
2017-Nov-19 00:58N 22°28' E 113°54'0 0.0
2017-Nov-19 00:28N 22°28' E 113°54'1 2.2
2017-Nov-19 00:01N 22°27' E 113°54'3 6.5
2017-Nov-18 23:30N 22°24' E 113°54'3 5.8
2017-Nov-18 23:00N 22°21' E 113°56'611.5
2017-Nov-18 22:30N 22°21' E 114°02'5 9.0
2017-Nov-18 21:57N 22°20' E 114°07'1 0.5
2017-Nov-18 19:54N 22°21' E 114°07'2 0.1
2017-Nov-18 04:04N 22°19' E 114°06'1 9.0
2017-Nov-18 03:57N 22°18' E 114°06'22 8.3
2017-Nov-18 01:21N 22°08' E 114°27'512.5
2017-Nov-18 00:57N 22°09' E 114°33'715.2
2017-Nov-18 00:31N 22°10' E 114°40'815.3
2017-Nov-18 00:00N 22°11' E 114°48'815.0
2017-Nov-17 23:29N 22°12' E 114°56'715.1
2017-Nov-17 23:00N 22°12' E 115°04'814.8
2017-Nov-17 22:29N 22°14' E 115°12'5 9.7
2017-Nov-17 21:56N 22°16' E 115°18'0 0.3
2017-Nov-17 21:30N 22°16' E 115°18'0 0.3
2017-Nov-17 21:01N 22°16' E 115°18'0 0.3
2017-Nov-17 20:30N 22°16' E 115°18'0 0.4
2017-Nov-17 19:45N 22°16' E 115°18'0 0.1
2017-Nov-17 17:38N 22°16' E 115°18'0 0.4
2017-Nov-17 17:30N 22°16' E 115°18'0 0.3
2017-Nov-17 16:46N 22°16' E 115°18'0 0.2
2017-Nov-17 16:27N 22°16' E 115°18'0 0.1
2017-Nov-17 16:00N 22°16' E 115°18'1 0.6
2017-Nov-17 15:04N 22°15' E 115°17'0 1.3
2017-Nov-17 14:50N 22°15' E 115°17'1 3.3
2017-Nov-17 14:30N 22°15' E 115°18'26314.5
2017-Nov-16 20:21N 22°32' E 120°03'615.9
2017-Nov-16 20:00N 22°32' E 120°09'714.2
2017-Nov-16 19:30N 22°33' E 120°16'2 4.7
2017-Nov-16 19:00N 22°34' E 120°19'1 0.2
2017-Nov-16 15:46N 22°35' E 120°18'0 0.0
2017-Nov-16 15:22N 22°35' E 120°18'0 0.0
2017-Nov-16 09:05N 22°35' E 120°18'0 0.7
2017-Nov-16 09:00N 22°35' E 120°18'3 5.4
2017-Nov-16 08:30N 22°37' E 120°17'3 6.2
2017-Nov-16 08:00N 22°37' E 120°13'0 0.5
2017-Nov-16 07:30N 22°37' E 120°13'3 6.7
2017-Nov-16 07:00N 22°39' E 120°10'612.4
2017-Nov-16 06:31N 22°45' E 120°07'  
2017-Nov-09 19:52N 34°34' E 134°50'515.1
2017-Nov-09 19:30N 34°36' E 134°56'713.7
2017-Nov-09 19:00N 34°36' E 135°04'713.5
2017-Nov-09 18:30N 34°36' E 135°12'4 8.1
2017-Nov-09 18:00N 34°38' E 135°16'3 2.8
2017-Nov-09 17:05N 34°41' E 135°15'0 0.0
2017-Nov-09 16:59N 34°41' E 135°15'0 0.0
2017-Nov-09 16:17N 34°41' E 135°15'0 0.0
2017-Nov-09 15:53N 34°41' E 135°15'0 0.0
2017-Nov-09 15:29N 34°41' E 135°15'0 0.0
2017-Nov-09 14:55N 34°41' E 135°15'0 0.0
2017-Nov-09 14:25N 34°41' E 135°15'0 0.0
2017-Nov-09 13:55N 34°41' E 135°15'0 0.0
2017-Nov-09 13:19N 34°41' E 135°15'0 0.0
2017-Nov-09 12:55N 34°41' E 135°15'0 0.0
2017-Nov-09 12:13N 34°41' E 135°15'0 0.0
2017-Nov-09 11:49N 34°41' E 135°15'0 0.0
2017-Nov-09 11:25N 34°41' E 135°15'0 0.0
2017-Nov-09 10:55N 34°41' E 135°15'0 0.0
2017-Nov-09 10:25N 34°41' E 135°15'0 0.0
2017-Nov-09 09:55N 34°41' E 135°15'0 0.0
2017-Nov-09 09:29N 34°41' E 135°15'2 4.7
2017-Nov-09 09:00N 34°39' E 135°16'  

Dump ship's entire track history